Santa Fe, NM

2:18 PM MST on January 31, 2015 (GMT -0700)
Los Alamos | Change Station
CLOSE
Current Station
Airport
Location: Los Alamos,
Elevation: 7172 ft
Nearby Weather Stations

Elev 7172 ft 35.88 °N, 106.27 °W | Updated 23 minutes ago

Snow
Snow
32 °F
Feels Like 32 °F
N
0
Wind Variable Wind from North

Today
High -- | Low -- °F
--% Chance of Precip.
Yesterday
High -- | Low -- °F
Precip. -- in
7:04 AM 5:30 PM
Waxing Gibbous, 91% visible
Pressure 29.87 in
Visibility 0.2 miles
Clouds Overcast 200 ft
Dew Point 32 °F
Humidity 100%
Rainfall 0.02 in
Snow Depth Not available.
UV 1 out of 12
Pollen .90 out of 12
Air Quality Not available.
Flu Activity Not available.
METAR KLAM 312055Z AUTO 00000KT M1/4SM FZFG OVC002 00/00 A2987 RMK AO2 T10031003

More Conditions Fewer Conditions

Pressure 29.87 in
Visibility 0.2 miles
Clouds Overcast 200 ft
Dew Point 32 °F
Humidity 100%
Rainfall 0.02 in
Snow Depth Not available.
UV 1 out of 12
Pollen .90 out of 12
Air Quality Not available.
Flu Activity Not available.
METAR KLAM 312055Z AUTO 00000KT M1/4SM FZFG OVC002 00/00 A2987 RMK AO2 T10031003

More Conditions Fewer Conditions

10-Day Weather Forecast

Almanac

Astronomy

Jan. 31, 2015 Rise Set
Actual Time
Civil Twilight
Nautical Twilight
Astronomical Twilight
Moon
Length of Visible Light
Length of Day
Tomorrow will be .
, % of the Moon is Illuminated

Today's Extremes

State Highs State Lows

Community

WunderPhotos

Upload Photos

1,792,203 photos uploaded!

WunderBlogs® & News

Nearby

Air Quality

  Air Quality AQ Index Pollutant
Not available.

Snow Depth

Station Depth Elevation

Earthquake Activity

City Distance Mag. Time & Date
Minimum magnitude displayed is 2.5.

Coastal Water Temperatures

Place Temperature

Nearby Weather Stations